Waterdown, Canada
Current Conditions -  °F | °C
As of 3:00 AM on Thursday 29 Jan 2015 (Local Time) from CYHM Reporting Station
Overcast Overcast  
Wind Chill: 10°   Ceiling: 9000
Heat Index: 19°   Visibility: 15mi
Dew Point: 14°   Wind: 7mph
Humidity: 80%   Direction: 150°SSE
Pressure: 30.18"   Gusts: NA
Location:  43.33°N, 79.88°W
Report Text: CYHM 290800Z 15006KT 15SM OVC090 M07/M10 A3018 RMK AC8 SLP233
Loading
Personal Weather Stations






























Interactive Weather Map New forecast layout! Learn more

10-Day Weather Forecast

Advertisements
Track Severe Weather on mobile